»·PEaware :: WAT169 KSNA-KRNO

WAT169 :: KSNA-KRNO

FLIGHT INFORMATION

Flight Status: Arrived
Operator:
Walker Air Transport
More flights by this operator :: More flights under this callsign
Pilot: Marty P. (27464)
Aircraft: BEECH AIRCRAFT SUPER KING AIR 350
(B350)
More flights by this aircraft type
Origin: KSNA John Wayne-Orange Co
United States
Destination: KRNO Reno/Tahoe Intl
United States
More flights between these airports :: More routes between these airports
Route: +CHANL3 SXC LAX LHS EHF FMG
File this flight plan on PilotEdge
Remarks:
Altitude:
(Current/Filed)
28,000ft
Speed:
(Current/Filed)
220kts
Departed: 24-Oct-20 10:49 AM
Arrived: 24-Oct-20 12:28 PM
Distance/Time
Traveled:
361nm/1:38
Distance/Time
To Go:
Arrived

Flight Plot

Page will automatically refresh every two minutes.

Flight plan parsing failed; only flown route is shown


Map Options




Map Legend


Flown Route
Filed Route
Departure Airport
Arrival Airport
Navaid (VOR, NDB)
Fix

Horizontal Profiles

Position Reports

Time Latitude Longitude Heading Altitude Ground
Speed
24-Oct-20 10:12 33.671792 -117.866946 206 61ft 0kts
24-Oct-20 10:13 33.672230 -117.866684 206 61ft 0kts
24-Oct-20 10:14 33.672230 -117.866684 206 61ft 0kts
24-Oct-20 10:15 33.672230 -117.866684 206 61ft 0kts
24-Oct-20 10:16 33.672230 -117.866684 206 61ft 0kts
24-Oct-20 10:17 33.672230 -117.866684 206 61ft 0kts
24-Oct-20 10:18 33.672230 -117.866684 206 61ft 0kts
24-Oct-20 10:19 33.672230 -117.866684 206 61ft 0kts
24-Oct-20 10:20 33.672230 -117.866684 206 61ft 0kts
24-Oct-20 10:21 33.672230 -117.866684 206 61ft 0kts
24-Oct-20 10:22 33.672230 -117.866684 206 61ft 0kts
24-Oct-20 10:23 33.672230 -117.866684 206 61ft 0kts
24-Oct-20 10:24 33.672230 -117.866684 206 61ft 0kts
24-Oct-20 10:25 33.672230 -117.866684 206 61ft 0kts
24-Oct-20 10:26 33.672230 -117.866684 206 61ft 0kts
24-Oct-20 10:27 33.672230 -117.866684 206 61ft 0kts
24-Oct-20 10:28 33.672230 -117.866684 206 61ft 0kts
24-Oct-20 10:29 33.672230 -117.866684 206 61ft 0kts
24-Oct-20 10:30 33.672230 -117.866684 206 61ft 0kts
24-Oct-20 10:31 33.672229 -117.866684 206 61ft 0kts
24-Oct-20 10:32 33.672229 -117.866684 206 61ft 0kts
24-Oct-20 10:33 33.672229 -117.866684 206 61ft 0kts
24-Oct-20 10:34 33.672229 -117.866684 206 61ft 0kts
24-Oct-20 10:35 33.672229 -117.866684 206 61ft 0kts
24-Oct-20 10:36 33.672229 -117.866684 206 61ft 0kts
24-Oct-20 10:37 33.672229 -117.866684 206 61ft 0kts
24-Oct-20 10:38 33.672229 -117.866684 206 61ft 0kts
24-Oct-20 10:39 33.672229 -117.866684 206 61ft 0kts
24-Oct-20 10:40 33.672229 -117.866684 206 61ft 0kts
24-Oct-20 10:41 33.672229 -117.866684 206 61ft 0kts
24-Oct-20 10:42 33.672487 -117.867720 309 61ft 6kts
24-Oct-20 10:43 33.674148 -117.867051 28 61ft 15kts
24-Oct-20 10:44 33.678284 -117.864434 27 61ft 16kts
24-Oct-20 10:45 33.679964 -117.863619 299 61ft 0kts
24-Oct-20 10:46 33.680461 -117.864724 296 61ft 0kts
24-Oct-20 10:47 33.680239 -117.865949 208 61ft 17kts
24-Oct-20 10:48 33.656369 -117.880633 207 734ft 136kts
24-Oct-20 10:49 33.615973 -117.892848 189 1935ft 176kts
24-Oct-20 10:50 33.568263 -117.905641 214 3590ft 177kts
24-Oct-20 10:51 33.527091 -117.938529 214 5127ft 182kts
24-Oct-20 10:52 33.485201 -117.971859 215 7298ft 179kts
24-Oct-20 10:53 33.444202 -118.004468 215 9338ft 176kts
24-Oct-20 10:54 33.403825 -118.036593 214 11297ft 173kts
24-Oct-20 10:55 33.364140 -118.068121 214 13171ft 171kts
24-Oct-20 10:56 33.333832 -118.113145 272 14020ft 223kts
24-Oct-20 10:57 33.363072 -118.174239 328 15925ft 208kts
24-Oct-20 10:58 33.415675 -118.197870 330 17426ft 217kts
24-Oct-20 10:59 33.471947 -118.223057 328 19119ft 216kts
24-Oct-20 11:00 33.527796 -118.248249 327 20820ft 217kts
24-Oct-20 11:01 33.584031 -118.273725 325 22622ft 216kts
24-Oct-20 11:02 33.644553 -118.301415 327 23099ft 258kts
24-Oct-20 11:03 33.716112 -118.333531 329 23092ft 290kts
24-Oct-20 11:04 33.793453 -118.368434 329 23102ft 307kts
24-Oct-20 11:05 33.869962 -118.402962 327 24265ft 278kts
24-Oct-20 11:06 33.937651 -118.432104 333 25713ft 253kts
24-Oct-20 11:07 34.005592 -118.446124 336 27238ft 245kts
24-Oct-20 11:08 34.073118 -118.459451 336 28112ft 264kts
24-Oct-20 11:09 34.149114 -118.474053 338 28080ft 290kts
24-Oct-20 11:10 34.230142 -118.489337 339 28079ft 304kts
24-Oct-20 11:11 34.314713 -118.505476 339 28077ft 314kts
24-Oct-20 11:12 34.401364 -118.522116 340 28076ft 320kts
24-Oct-20 11:13 34.489822 -118.539195 340 28093ft 324kts
24-Oct-20 11:14 34.579187 -118.556540 340 28119ft 328kts
24-Oct-20 11:15 34.669831 -118.574724 336 28072ft 329kts
24-Oct-20 11:16 34.749848 -118.619882 321 28067ft 316kts
24-Oct-20 11:17 34.827533 -118.669702 321 28107ft 317kts
24-Oct-20 11:18 34.905756 -118.720117 321 28124ft 319kts
24-Oct-20 11:19 34.984333 -118.770890 322 28125ft 322kts
24-Oct-20 11:20 35.063388 -118.822149 322 28116ft 323kts
24-Oct-20 11:21 35.142921 -118.873882 322 28084ft 323kts
24-Oct-20 11:22 35.222136 -118.925352 323 28066ft 323kts
24-Oct-20 11:23 35.301303 -118.977130 323 28068ft 322kts
24-Oct-20 11:24 35.380267 -119.028664 324 28070ft 321kts
24-Oct-20 11:25 35.458952 -119.080254 324 28059ft 321kts
24-Oct-20 11:26 35.547683 -119.105827 347 28068ft 336kts
24-Oct-20 11:27 35.640579 -119.117514 348 28065ft 335kts
24-Oct-20 11:28 35.733035 -119.129552 348 28066ft 334kts
24-Oct-20 11:29 35.825134 -119.141697 348 28072ft 333kts
24-Oct-20 11:30 35.917269 -119.153874 348 28077ft 333kts
24-Oct-20 11:31 36.009295 -119.166064 349 28086ft 332kts
24-Oct-20 11:32 36.100364 -119.178117 350 28078ft 329kts
24-Oct-20 11:33 36.190360 -119.190094 350 28073ft 326kts
24-Oct-20 11:34 36.280283 -119.202101 351 28073ft 324kts
24-Oct-20 11:35 36.369666 -119.214054 351 28073ft 323kts
24-Oct-20 11:36 36.458897 -119.226016 351 28072ft 322kts
24-Oct-20 11:37 36.547638 -119.237935 351 28071ft 321kts
24-Oct-20 11:38 36.636535 -119.249902 351 28071ft 320kts
24-Oct-20 11:40 36.725023 -119.261835 351 28072ft 319kts
24-Oct-20 11:41 36.813054 -119.273739 351 28071ft 319kts
24-Oct-20 11:42 36.900707 -119.285616 352 28072ft 317kts
24-Oct-20 11:43 36.988311 -119.297518 352 28072ft 316kts
24-Oct-20 11:44 37.075314 -119.309367 352 28072ft 315kts
24-Oct-20 11:45 37.161773 -119.321158 353 28088ft 313kts
24-Oct-20 11:46 37.247546 -119.332899 353 28083ft 312kts
24-Oct-20 11:47 37.332621 -119.344597 353 28100ft 313kts
24-Oct-20 11:48 37.418225 -119.356358 353 28100ft 313kts
24-Oct-20 11:49 37.504595 -119.368246 354 28099ft 312kts
24-Oct-20 11:50 37.590311 -119.380070 354 28099ft 311kts
24-Oct-20 11:51 37.676060 -119.391930 354 28099ft 310kts
24-Oct-20 11:52 37.760766 -119.403685 354 28099ft 309kts
24-Oct-20 11:53 37.845818 -119.415511 354 28100ft 308kts
24-Oct-20 11:54 37.930930 -119.427378 354 28098ft 307kts
24-Oct-20 11:54 38.001847 -119.437254 355 27733ft 315kts
24-Oct-20 11:56 38.106618 -119.451556 354 25744ft 335kts
24-Oct-20 11:56 38.184653 -119.462372 354 24309ft 340kts
24-Oct-20 11:58 38.288947 -119.477139 354 24053ft 305kts
24-Oct-20 11:58 38.357334 -119.486952 354 23893ft 292kts
24-Oct-20 11:59 38.436954 -119.498295 354 23623ft 285kts
24-Oct-20 12:00 38.511992 -119.509009 354 24049ft 258kts
24-Oct-20 12:01 38.584155 -119.519426 353 24078ft 268kts
24-Oct-20 12:02 38.661054 -119.530337 353 23523ft 299kts
24-Oct-20 12:03 38.750247 -119.542540 353 21113ft 334kts
24-Oct-20 12:05 38.854941 -119.557366 352 18799ft 314kts
24-Oct-20 12:05 38.925833 -119.567625 351 17525ft 303kts
24-Oct-20 12:06 39.008446 -119.579558 351 16070ft 292kts
24-Oct-20 12:07 39.083508 -119.590779 350 16071ft 259kts
24-Oct-20 12:08 39.152786 -119.600884 350 16077ft 244kts
24-Oct-20 12:09 39.219019 -119.610327 350 16077ft 236kts
24-Oct-20 12:10 39.283833 -119.619794 350 15861ft 241kts
24-Oct-20 12:11 39.355354 -119.630113 350 14135ft 275kts
24-Oct-20 12:12 39.433687 -119.641317 350 12242ft 288kts
24-Oct-20 12:13 39.512723 -119.652805 351 10231ft 285kts
24-Oct-20 12:14 39.584424 -119.652544 0 10071ft 231kts
24-Oct-20 12:15 39.644071 -119.649023 359 10029ft 199kts
24-Oct-20 12:16 39.699165 -119.645783 359 10043ft 200kts
24-Oct-20 12:17 39.755369 -119.642342 359 10040ft 204kts
24-Oct-20 12:18 39.808289 -119.655208 307 10049ft 195kts
24-Oct-20 12:19 39.815916 -119.724605 267 9172ft 203kts
24-Oct-20 12:20 39.777878 -119.766048 181 7702ft 204kts
24-Oct-20 12:21 39.724805 -119.766219 182 7240ft 177kts
24-Oct-20 12:22 39.674182 -119.766438 181 7242ft 185kts
24-Oct-20 12:23 39.622483 -119.766488 180 6918ft 166kts
24-Oct-20 12:24 39.579635 -119.766578 179 6258ft 144kts
24-Oct-20 12:25 39.541899 -119.766603 178 4972ft 123kts
24-Oct-20 12:26 39.510028 -119.766725 179 4422ft 98kts
24-Oct-20 12:27 39.502737 -119.765744 167 4420ft 9kts
24-Oct-20 12:28 39.500834 -119.765007 144 4420ft 1kts
24-Oct-20 12:29 39.498964 -119.764673 90 4420ft 0kts
24-Oct-20 12:30 39.498965 -119.764695 90 4420ft 0kts
24-Oct-20 12:31 39.498965 -119.764695 90 4420ft 0kts
24-Oct-20 12:32 39.498965 -119.764695 90 4420ft 0kts
24-Oct-20 12:33 39.498965 -119.764695 90 4420ft 0kts
24-Oct-20 12:34 39.498965 -119.764695 90 4420ft 0kts
24-Oct-20 12:35 39.498965 -119.764695 90 4420ft 0kts
24-Oct-20 12:36 39.498965 -119.764695 90 4420ft 0kts
24-Oct-20 12:37 39.498965 -119.764695 90 4420ft 0kts
24-Oct-20 12:38 39.498965 -119.764695 90 4420ft 0kts
24-Oct-20 12:39 39.498965 -119.764695 90 4420ft 0kts
24-Oct-20 12:40 39.498965 -119.764695 90 4420ft 0kts

Navigation Log

Ident Type
Flight plan parsing failed, navigation log unavailable